sensor_id;sensor_type;location;lat;lon;timestamp;temperature;humidity
59572;DHT22;59406;45.602;11.904;2023-04-06T00:07:52;18.80;74.40
59572;DHT22;59406;45.602;11.904;2023-04-06T00:10:19;18.70;74.60
59572;DHT22;59406;45.602;11.904;2023-04-06T00:12:45;18.80;74.70
59572;DHT22;59406;45.602;11.904;2023-04-06T00:15:11;18.70;75.60
59572;DHT22;59406;45.602;11.904;2023-04-06T00:17:37;18.70;76.00
59572;DHT22;59406;45.602;11.904;2023-04-06T00:20:03;18.70;75.30
59572;DHT22;59406;45.602;11.904;2023-04-06T00:22:30;18.70;74.80
59572;DHT22;59406;45.602;11.904;2023-04-06T00:24:55;18.80;74.20
59572;DHT22;59406;45.602;11.904;2023-04-06T00:27:21;18.70;73.10
59572;DHT22;59406;45.602;11.904;2023-04-06T00:29:47;18.70;72.60
59572;DHT22;59406;45.602;11.904;2023-04-06T00:32:13;18.70;72.40
59572;DHT22;59406;45.602;11.904;2023-04-06T00:34:39;18.70;72.10
59572;DHT22;59406;45.602;11.904;2023-04-06T00:39:40;18.70;72.40
59572;DHT22;59406;45.602;11.904;2023-04-06T00:42:15;18.70;72.90
59572;DHT22;59406;45.602;11.904;2023-04-06T00:47:10;18.70;72.40
59572;DHT22;59406;45.602;11.904;2023-04-06T00:52:10;18.60;71.70
59572;DHT22;59406;45.602;11.904;2023-04-06T00:54:35;18.70;71.70
59572;DHT22;59406;45.602;11.904;2023-04-06T00:57:09;18.70;72.00
59572;DHT22;59406;45.602;11.904;2023-04-06T00:59:35;18.50;72.20
59572;DHT22;59406;45.602;11.904;2023-04-06T01:02:01;18.70;72.10
59572;DHT22;59406;45.602;11.904;2023-04-06T01:09:35;18.60;73.70
59572;DHT22;59406;45.602;11.904;2023-04-06T01:12:01;18.60;74.70
59572;DHT22;59406;45.602;11.904;2023-04-06T01:14:28;18.60;73.70
59572;DHT22;59406;45.602;11.904;2023-04-06T01:16:54;18.60;74.30
59572;DHT22;59406;45.602;11.904;2023-04-06T01:24:21;18.50;72.90
59572;DHT22;59406;45.602;11.904;2023-04-06T01:26:48;18.60;72.90
59572;DHT22;59406;45.602;11.904;2023-04-06T01:29:13;18.60;72.90
59572;DHT22;59406;45.602;11.904;2023-04-06T01:31:40;18.60;72.90
59572;DHT22;59406;45.602;11.904;2023-04-06T01:39:08;18.50;72.40
59572;DHT22;59406;45.602;11.904;2023-04-06T01:41:34;18.50;72.30
59572;DHT22;59406;45.602;11.904;2023-04-06T01:44:00;18.50;72.90
59572;DHT22;59406;45.602;11.904;2023-04-06T01:46:26;18.50;72.70
59572;DHT22;59406;45.602;11.904;2023-04-06T01:48:52;18.50;72.70
59572;DHT22;59406;45.602;11.904;2023-04-06T01:51:18;18.50;72.60
59572;DHT22;59406;45.602;11.904;2023-04-06T01:53:44;18.50;72.80
59572;DHT22;59406;45.602;11.904;2023-04-06T02:03:27;18.50;72.70
59572;DHT22;59406;45.602;11.904;2023-04-06T02:05:53;18.50;72.90
59572;DHT22;59406;45.602;11.904;2023-04-06T02:08:19;18.40;73.00
59572;DHT22;59406;45.602;11.904;2023-04-06T02:10:44;18.40;73.70
59572;DHT22;59406;45.602;11.904;2023-04-06T02:13:10;18.40;73.30
59572;DHT22;59406;45.602;11.904;2023-04-06T02:15:36;18.40;72.50
59572;DHT22;59406;45.602;11.904;2023-04-06T02:20:28;18.40;72.10
59572;DHT22;59406;45.602;11.904;2023-04-06T02:22:58;18.40;73.00
59572;DHT22;59406;45.602;11.904;2023-04-06T02:25:24;18.40;73.80
59572;DHT22;59406;45.602;11.904;2023-04-06T02:27:50;18.40;73.60
59572;DHT22;59406;45.602;11.904;2023-04-06T02:30:15;18.40;73.80
59572;DHT22;59406;45.602;11.904;2023-04-06T02:40:06;18.40;73.30
59572;DHT22;59406;45.602;11.904;2023-04-06T02:42:32;18.40;73.60
59572;DHT22;59406;45.602;11.904;2023-04-06T02:45:00;18.40;73.70
59572;DHT22;59406;45.602;11.904;2023-04-06T02:47:26;18.30;74.20
59572;DHT22;59406;45.602;11.904;2023-04-06T02:49:52;18.40;73.50
59572;DHT22;59406;45.602;11.904;2023-04-06T02:57:13;18.30;73.00
59572;DHT22;59406;45.602;11.904;2023-04-06T03:04:44;18.30;73.10
59572;DHT22;59406;45.602;11.904;2023-04-06T03:07:10;18.30;72.60
59572;DHT22;59406;45.602;11.904;2023-04-06T03:12:07;18.30;73.50
59572;DHT22;59406;45.602;11.904;2023-04-06T03:14:33;18.30;74.30
59572;DHT22;59406;45.602;11.904;2023-04-06T03:16:59;18.20;73.60
59572;DHT22;59406;45.602;11.904;2023-04-06T03:19:25;18.30;73.50
59572;DHT22;59406;45.602;11.904;2023-04-06T03:21:51;18.30;73.70
59572;DHT22;59406;45.602;11.904;2023-04-06T03:26:46;18.20;73.60
59572;DHT22;59406;45.602;11.904;2023-04-06T03:29:12;18.30;73.40
59572;DHT22;59406;45.602;11.904;2023-04-06T03:31:40;18.20;73.30
59572;DHT22;59406;45.602;11.904;2023-04-06T03:34:06;18.20;73.40
59572;DHT22;59406;45.602;11.904;2023-04-06T03:39:01;18.30;74.10
59572;DHT22;59406;45.602;11.904;2023-04-06T03:41:27;18.30;73.80
59572;DHT22;59406;45.602;11.904;2023-04-06T03:43:53;18.20;74.30
59572;DHT22;59406;45.602;11.904;2023-04-06T03:46:19;18.30;75.40
59572;DHT22;59406;45.602;11.904;2023-04-06T03:53:56;18.20;78.40
59572;DHT22;59406;45.602;11.904;2023-04-06T03:58:51;18.20;79.80
59572;DHT22;59406;45.602;11.904;2023-04-06T04:01:17;18.10;81.20
59572;DHT22;59406;45.602;11.904;2023-04-06T04:03:44;18.20;80.60
59572;DHT22;59406;45.602;11.904;2023-04-06T04:11:10;18.20;79.80
59572;DHT22;59406;45.602;11.904;2023-04-06T04:13:36;18.20;80.30
59572;DHT22;59406;45.602;11.904;2023-04-06T04:16:02;18.20;78.90
59572;DHT22;59406;45.602;11.904;2023-04-06T04:18:28;18.10;79.00
59572;DHT22;59406;45.602;11.904;2023-04-06T04:20:54;18.10;77.80
59572;DHT22;59406;45.602;11.904;2023-04-06T04:23:20;18.20;75.60
59572;DHT22;59406;45.602;11.904;2023-04-06T04:25:46;18.10;76.80
59572;DHT22;59406;45.602;11.904;2023-04-06T04:28:12;18.10;76.10
59572;DHT22;59406;45.602;11.904;2023-04-06T04:30:38;18.20;75.10
59572;DHT22;59406;45.602;11.904;2023-04-06T04:33:04;18.10;76.70
59572;DHT22;59406;45.602;11.904;2023-04-06T04:35:30;18.20;76.10
59572;DHT22;59406;45.602;11.904;2023-04-06T04:37:56;18.10;76.90
59572;DHT22;59406;45.602;11.904;2023-04-06T04:42:48;18.00;76.10
59572;DHT22;59406;45.602;11.904;2023-04-06T04:47:48;18.00;76.00
59572;DHT22;59406;45.602;11.904;2023-04-06T04:50:13;18.10;76.50
59572;DHT22;59406;45.602;11.904;2023-04-06T04:52:39;18.10;76.20
59572;DHT22;59406;45.602;11.904;2023-04-06T04:57:40;18.10;76.10
59572;DHT22;59406;45.602;11.904;2023-04-06T05:00:07;18.10;75.50
59572;DHT22;59406;45.602;11.904;2023-04-06T05:02:33;18.00;75.50
59572;DHT22;59406;45.602;11.904;2023-04-06T05:04:59;18.00;75.50
59572;DHT22;59406;45.602;11.904;2023-04-06T05:07:25;18.10;75.70
59572;DHT22;59406;45.602;11.904;2023-04-06T05:09:51;18.00;76.00
59572;DHT22;59406;45.602;11.904;2023-04-06T05:12:18;18.10;75.70
59572;DHT22;59406;45.602;11.904;2023-04-06T05:14:45;18.10;75.60
59572;DHT22;59406;45.602;11.904;2023-04-06T05:17:11;18.00;76.10
59572;DHT22;59406;45.602;11.904;2023-04-06T05:19:37;18.00;76.50
59572;DHT22;59406;45.602;11.904;2023-04-06T05:22:03;18.10;77.80
59572;DHT22;59406;45.602;11.904;2023-04-06T05:24:28;18.10;78.60
59572;DHT22;59406;45.602;11.904;2023-04-06T05:26:55;18.10;78.80
59572;DHT22;59406;45.602;11.904;2023-04-06T05:29:21;18.00;79.20
59572;DHT22;59406;45.602;11.904;2023-04-06T05:31:47;18.20;77.70
59572;DHT22;59406;45.602;11.904;2023-04-06T05:34:13;18.10;78.70
59572;DHT22;59406;45.602;11.904;2023-04-06T05:36:39;18.10;78.10
59572;DHT22;59406;45.602;11.904;2023-04-06T05:39:06;18.20;76.90
59572;DHT22;59406;45.602;11.904;2023-04-06T05:41:32;18.20;76.60
59572;DHT22;59406;45.602;11.904;2023-04-06T05:43:58;18.30;76.10
59572;DHT22;59406;45.602;11.904;2023-04-06T05:46:24;18.30;77.50
59572;DHT22;59406;45.602;11.904;2023-04-06T05:48:50;18.30;76.70
59572;DHT22;59406;45.602;11.904;2023-04-06T05:51:16;18.30;77.50
59572;DHT22;59406;45.602;11.904;2023-04-06T05:53:45;18.40;78.10
59572;DHT22;59406;45.602;11.904;2023-04-06T05:56:11;18.50;78.20
59572;DHT22;59406;45.602;11.904;2023-04-06T05:58:37;18.60;75.80
59572;DHT22;59406;45.602;11.904;2023-04-06T06:01:03;18.80;77.10
59572;DHT22;59406;45.602;11.904;2023-04-06T06:03:30;19.00;75.60
59572;DHT22;59406;45.602;11.904;2023-04-06T06:06:03;19.20;74.80
59572;DHT22;59406;45.602;11.904;2023-04-06T06:08:30;19.20;77.30
59572;DHT22;59406;45.602;11.904;2023-04-06T06:10:56;19.40;75.40
59572;DHT22;59406;45.602;11.904;2023-04-06T06:13:23;19.50;75.00
59572;DHT22;59406;45.602;11.904;2023-04-06T06:15:49;19.60;75.10
59572;DHT22;59406;45.602;11.904;2023-04-06T06:18:16;19.70;75.50
59572;DHT22;59406;45.602;11.904;2023-04-06T06:20:42;19.90;75.20
59572;DHT22;59406;45.602;11.904;2023-04-06T06:23:07;19.90;74.90
59572;DHT22;59406;45.602;11.904;2023-04-06T06:25:33;19.90;74.90
59572;DHT22;59406;45.602;11.904;2023-04-06T06:27:59;20.00;74.90
59572;DHT22;59406;45.602;11.904;2023-04-06T06:30:25;20.00;74.80
59572;DHT22;59406;45.602;11.904;2023-04-06T06:32:51;19.90;75.20
59572;DHT22;59406;45.602;11.904;2023-04-06T06:35:17;19.90;75.70
59572;DHT22;59406;45.602;11.904;2023-04-06T06:40:15;19.70;76.60
59572;DHT22;59406;45.602;11.904;2023-04-06T06:45:12;19.80;76.90
59572;DHT22;59406;45.602;11.904;2023-04-06T06:47:38;19.90;76.80
59572;DHT22;59406;45.602;11.904;2023-04-06T06:50:04;20.20;75.80
59572;DHT22;59406;45.602;11.904;2023-04-06T06:52:30;20.60;74.90
59572;DHT22;59406;45.602;11.904;2023-04-06T06:54:56;20.80;74.00
59572;DHT22;59406;45.602;11.904;2023-04-06T06:57:22;21.00;72.70
59572;DHT22;59406;45.602;11.904;2023-04-06T06:59:48;21.10;72.50
59572;DHT22;59406;45.602;11.904;2023-04-06T07:04:47;21.10;71.20
59572;DHT22;59406;45.602;11.904;2023-04-06T07:09:42;20.70;71.80
59572;DHT22;59406;45.602;11.904;2023-04-06T07:12:08;20.50;71.80
59572;DHT22;59406;45.602;11.904;2023-04-06T07:14:33;20.30;71.10
59572;DHT22;59406;45.602;11.904;2023-04-06T07:16:59;20.30;72.50
59572;DHT22;59406;45.602;11.904;2023-04-06T07:19:25;20.30;72.30
59572;DHT22;59406;45.602;11.904;2023-04-06T07:21:51;20.20;71.90
59572;DHT22;59406;45.602;11.904;2023-04-06T07:24:16;20.10;72.70
59572;DHT22;59406;45.602;11.904;2023-04-06T07:26:42;20.10;72.30
59572;DHT22;59406;45.602;11.904;2023-04-06T07:29:08;20.00;73.90
59572;DHT22;59406;45.602;11.904;2023-04-06T07:31:35;19.90;70.90
59572;DHT22;59406;45.602;11.904;2023-04-06T07:34:04;19.90;70.80
59572;DHT22;59406;45.602;11.904;2023-04-06T07:36:30;19.80;72.00
59572;DHT22;59406;45.602;11.904;2023-04-06T07:38:56;19.80;71.80
59572;DHT22;59406;45.602;11.904;2023-04-06T07:41:22;19.80;73.90
59572;DHT22;59406;45.602;11.904;2023-04-06T07:43:49;19.80;74.40
59572;DHT22;59406;45.602;11.904;2023-04-06T07:46:15;19.80;72.80
59572;DHT22;59406;45.602;11.904;2023-04-06T07:48:41;19.80;70.60
59572;DHT22;59406;45.602;11.904;2023-04-06T07:51:07;19.60;69.90
59572;DHT22;59406;45.602;11.904;2023-04-06T07:53:34;19.60;69.80
59572;DHT22;59406;45.602;11.904;2023-04-06T07:56:00;19.60;69.70
59572;DHT22;59406;45.602;11.904;2023-04-06T07:58:26;19.60;70.10
59572;DHT22;59406;45.602;11.904;2023-04-06T08:00:52;19.50;70.10
59572;DHT22;59406;45.602;11.904;2023-04-06T08:03:18;19.50;70.50
59572;DHT22;59406;45.602;11.904;2023-04-06T08:05:46;19.50;70.20
59572;DHT22;59406;45.602;11.904;2023-04-06T08:08:12;19.60;70.20
59572;DHT22;59406;45.602;11.904;2023-04-06T08:10:38;19.50;70.20
59572;DHT22;59406;45.602;11.904;2023-04-06T08:13:04;19.50;69.20
59572;DHT22;59406;45.602;11.904;2023-04-06T08:15:30;19.40;69.60
59572;DHT22;59406;45.602;11.904;2023-04-06T08:17:56;19.50;69.40
59572;DHT22;59406;45.602;11.904;2023-04-06T08:20:22;19.50;69.70
59572;DHT22;59406;45.602;11.904;2023-04-06T08:22:48;19.50;70.50
59572;DHT22;59406;45.602;11.904;2023-04-06T08:25:14;19.50;70.10
59572;DHT22;59406;45.602;11.904;2023-04-06T08:27:40;19.50;70.20
59572;DHT22;59406;45.602;11.904;2023-04-06T08:30:06;19.40;69.50
59572;DHT22;59406;45.602;11.904;2023-04-06T08:32:32;19.50;69.40
59572;DHT22;59406;45.602;11.904;2023-04-06T08:34:58;19.50;69.20
59572;DHT22;59406;45.602;11.904;2023-04-06T08:37:24;19.50;69.20
59572;DHT22;59406;45.602;11.904;2023-04-06T08:39:50;19.40;69.40
59572;DHT22;59406;45.602;11.904;2023-04-06T08:42:20;19.50;71.70
59572;DHT22;59406;45.602;11.904;2023-04-06T08:44:49;19.60;70.50
59572;DHT22;59406;45.602;11.904;2023-04-06T08:47:16;19.60;69.90
59572;DHT22;59406;45.602;11.904;2023-04-06T08:49:44;19.60;69.30
59572;DHT22;59406;45.602;11.904;2023-04-06T08:52:10;19.40;69.20
59572;DHT22;59406;45.602;11.904;2023-04-06T08:54:37;19.50;69.00
59572;DHT22;59406;45.602;11.904;2023-04-06T08:57:04;19.50;69.00
59572;DHT22;59406;45.602;11.904;2023-04-06T08:59:31;19.50;69.00
59572;DHT22;59406;45.602;11.904;2023-04-06T09:01:59;19.50;69.10
59572;DHT22;59406;45.602;11.904;2023-04-06T09:04:27;19.50;69.30
59572;DHT22;59406;45.602;11.904;2023-04-06T09:06:53;19.50;69.20
59572;DHT22;59406;45.602;11.904;2023-04-06T09:09:19;19.50;68.90
59572;DHT22;59406;45.602;11.904;2023-04-06T09:11:47;19.50;70.10
59572;DHT22;59406;45.602;11.904;2023-04-06T09:14:14;19.50;69.70
59572;DHT22;59406;45.602;11.904;2023-04-06T09:16:45;19.50;69.10
59572;DHT22;59406;45.602;11.904;2023-04-06T09:19:11;19.60;71.40
59572;DHT22;59406;45.602;11.904;2023-04-06T09:21:38;19.60;70.30
59572;DHT22;59406;45.602;11.904;2023-04-06T09:24:07;19.60;69.50
59572;DHT22;59406;45.602;11.904;2023-04-06T09:26:45;19.50;69.20
59572;DHT22;59406;45.602;11.904;2023-04-06T09:29:22;19.50;68.90
59572;DHT22;59406;45.602;11.904;2023-04-06T09:31:49;19.50;68.50
59572;DHT22;59406;45.602;11.904;2023-04-06T09:34:22;19.50;68.90
59572;DHT22;59406;45.602;11.904;2023-04-06T09:36:49;19.50;69.20
59572;DHT22;59406;45.602;11.904;2023-04-06T09:39:21;19.50;69.30
59572;DHT22;59406;45.602;11.904;2023-04-06T09:41:51;19.50;70.80
59572;DHT22;59406;45.602;11.904;2023-04-06T09:44:17;19.60;70.50
59572;DHT22;59406;45.602;11.904;2023-04-06T09:46:45;19.50;71.00
59572;DHT22;59406;45.602;11.904;2023-04-06T09:49:12;19.60;71.20
59572;DHT22;59406;45.602;11.904;2023-04-06T09:51:41;19.60;72.70
59572;DHT22;59406;45.602;11.904;2023-04-06T09:54:07;19.70;72.20
59572;DHT22;59406;45.602;11.904;2023-04-06T09:56:44;19.70;72.50
59572;DHT22;59406;45.602;11.904;2023-04-06T09:59:16;19.70;73.80
59572;DHT22;59406;45.602;11.904;2023-04-06T10:01:47;19.80;73.20
59572;DHT22;59406;45.602;11.904;2023-04-06T10:07:02;19.80;69.60
59572;DHT22;59406;45.602;11.904;2023-04-06T10:09:29;19.70;70.70
59572;DHT22;59406;45.602;11.904;2023-04-06T10:12:03;19.70;70.10
59572;DHT22;59406;45.602;11.904;2023-04-06T10:14:32;19.70;69.40
59572;DHT22;59406;45.602;11.904;2023-04-06T10:16:59;19.60;70.80
59572;DHT22;59406;45.602;11.904;2023-04-06T10:19:29;19.60;69.70
59572;DHT22;59406;45.602;11.904;2023-04-06T10:21:59;19.60;69.50
59572;DHT22;59406;45.602;11.904;2023-04-06T10:24:25;19.60;69.90
59572;DHT22;59406;45.602;11.904;2023-04-06T10:27:26;19.60;72.50
59572;DHT22;59406;45.602;11.904;2023-04-06T10:29:52;19.70;75.00
59572;DHT22;59406;45.602;11.904;2023-04-06T10:32:18;19.70;71.80
59572;DHT22;59406;45.602;11.904;2023-04-06T10:34:44;19.60;71.50
59572;DHT22;59406;45.602;11.904;2023-04-06T10:37:14;19.70;70.60
59572;DHT22;59406;45.602;11.904;2023-04-06T10:39:55;19.60;69.80
59572;DHT22;59406;45.602;11.904;2023-04-06T10:42:24;19.60;68.90
59572;DHT22;59406;45.602;11.904;2023-04-06T10:44:51;19.60;69.60
59572;DHT22;59406;45.602;11.904;2023-04-06T10:47:18;19.60;70.10
59572;DHT22;59406;45.602;11.904;2023-04-06T10:49:44;19.60;68.80
59572;DHT22;59406;45.602;11.904;2023-04-06T10:52:10;19.50;69.30
59572;DHT22;59406;45.602;11.904;2023-04-06T10:54:41;19.50;71.80
59572;DHT22;59406;45.602;11.904;2023-04-06T10:57:08;19.50;71.20
59572;DHT22;59406;45.602;11.904;2023-04-06T10:59:35;19.50;70.20
59572;DHT22;59406;45.602;11.904;2023-04-06T11:02:01;19.60;69.90
59572;DHT22;59406;45.602;11.904;2023-04-06T11:04:27;19.60;69.30
59572;DHT22;59406;45.602;11.904;2023-04-06T11:06:52;19.50;69.40
59572;DHT22;59406;45.602;11.904;2023-04-06T11:09:30;19.40;69.20
59572;DHT22;59406;45.602;11.904;2023-04-06T11:11:57;19.40;68.70
59572;DHT22;59406;45.602;11.904;2023-04-06T11:14:23;19.50;71.70
59572;DHT22;59406;45.602;11.904;2023-04-06T11:16:49;19.60;72.90
59572;DHT22;59406;45.602;11.904;2023-04-06T11:19:16;19.50;73.70
59572;DHT22;59406;45.602;11.904;2023-04-06T11:21:44;19.60;74.40
59572;DHT22;59406;45.602;11.904;2023-04-06T11:24:19;19.60;75.00
59572;DHT22;59406;45.602;11.904;2023-04-06T11:29:25;19.70;70.90
59572;DHT22;59406;45.602;11.904;2023-04-06T11:31:53;19.60;70.20
59572;DHT22;59406;45.602;11.904;2023-04-06T11:34:27;19.50;70.10
59572;DHT22;59406;45.602;11.904;2023-04-06T11:37:01;19.60;71.90
59572;DHT22;59406;45.602;11.904;2023-04-06T11:39:29;19.60;72.10
59572;DHT22;59406;45.602;11.904;2023-04-06T11:42:00;19.60;72.40
59572;DHT22;59406;45.602;11.904;2023-04-06T11:47:03;19.60;72.50
59572;DHT22;59406;45.602;11.904;2023-04-06T11:49:30;19.50;70.10
59572;DHT22;59406;45.602;11.904;2023-04-06T11:52:00;19.60;71.60
59572;DHT22;59406;45.602;11.904;2023-04-06T11:54:30;19.50;72.60
59572;DHT22;59406;45.602;11.904;2023-04-06T11:56:57;19.70;73.70
59572;DHT22;59406;45.602;11.904;2023-04-06T11:59:23;19.60;71.50
59572;DHT22;59406;45.602;11.904;2023-04-06T12:01:49;19.50;70.80
59572;DHT22;59406;45.602;11.904;2023-04-06T12:04:15;19.60;70.50
59572;DHT22;59406;45.602;11.904;2023-04-06T12:06:41;19.60;70.00
59572;DHT22;59406;45.602;11.904;2023-04-06T12:09:07;19.60;69.90
59572;DHT22;59406;45.602;11.904;2023-04-06T12:11:33;19.50;70.00
59572;DHT22;59406;45.602;11.904;2023-04-06T12:13:58;19.50;72.60
59572;DHT22;59406;45.602;11.904;2023-04-06T12:16:27;19.60;73.80
59572;DHT22;59406;45.602;11.904;2023-04-06T12:18:53;19.60;74.00
59572;DHT22;59406;45.602;11.904;2023-04-06T12:21:19;19.70;72.60
59572;DHT22;59406;45.602;11.904;2023-04-06T12:23:45;19.70;73.20
59572;DHT22;59406;45.602;11.904;2023-04-06T12:26:11;19.60;72.40
59572;DHT22;59406;45.602;11.904;2023-04-06T12:28:37;19.60;71.30
59572;DHT22;59406;45.602;11.904;2023-04-06T12:31:03;19.60;70.20
59572;DHT22;59406;45.602;11.904;2023-04-06T12:33:29;19.60;71.40
59572;DHT22;59406;45.602;11.904;2023-04-06T12:35:55;19.60;70.50
59572;DHT22;59406;45.602;11.904;2023-04-06T12:38:22;19.60;72.30
59572;DHT22;59406;45.602;11.904;2023-04-06T12:40:47;19.60;72.60
59572;DHT22;59406;45.602;11.904;2023-04-06T12:43:14;19.70;73.30
59572;DHT22;59406;45.602;11.904;2023-04-06T12:48:09;19.60;74.30
59572;DHT22;59406;45.602;11.904;2023-04-06T12:53:04;19.60;71.00
59572;DHT22;59406;45.602;11.904;2023-04-06T12:55:30;19.60;70.80
59572;DHT22;59406;45.602;11.904;2023-04-06T12:57:59;19.60;72.40
59572;DHT22;59406;45.602;11.904;2023-04-06T13:00:25;19.60;72.20
59572;DHT22;59406;45.602;11.904;2023-04-06T13:05:18;19.60;70.60
59572;DHT22;59406;45.602;11.904;2023-04-06T13:07:45;19.70;71.20
59572;DHT22;59406;45.602;11.904;2023-04-06T13:10:12;19.60;70.60
59572;DHT22;59406;45.602;11.904;2023-04-06T13:15:09;19.60;70.20
59572;DHT22;59406;45.602;11.904;2023-04-06T13:17:35;19.60;71.60
59572;DHT22;59406;45.602;11.904;2023-04-06T13:20:01;19.60;71.30
59572;DHT22;59406;45.602;11.904;2023-04-06T13:22:29;19.60;70.10
59572;DHT22;59406;45.602;11.904;2023-04-06T13:24:55;19.50;69.20
59572;DHT22;59406;45.602;11.904;2023-04-06T13:27:21;19.60;70.30
59572;DHT22;59406;45.602;11.904;2023-04-06T13:29:47;19.60;69.30
59572;DHT22;59406;45.602;11.904;2023-04-06T13:32:13;19.50;69.30
59572;DHT22;59406;45.602;11.904;2023-04-06T13:34:39;19.60;70.20
59572;DHT22;59406;45.602;11.904;2023-04-06T13:37:12;19.60;70.70
59572;DHT22;59406;45.602;11.904;2023-04-06T13:39:39;19.60;70.30
59572;DHT22;59406;45.602;11.904;2023-04-06T13:42:06;19.60;70.00
59572;DHT22;59406;45.602;11.904;2023-04-06T13:44:32;19.60;69.00
59572;DHT22;59406;45.602;11.904;2023-04-06T13:46:58;19.50;69.10
59572;DHT22;59406;45.602;11.904;2023-04-06T13:49:25;19.60;68.90
59572;DHT22;59406;45.602;11.904;2023-04-06T13:51:51;19.60;68.60
59572;DHT22;59406;45.602;11.904;2023-04-06T13:54:17;19.60;68.40
59572;DHT22;59406;45.602;11.904;2023-04-06T13:56:42;19.50;68.40
59572;DHT22;59406;45.602;11.904;2023-04-06T13:59:08;19.50;68.80
59572;DHT22;59406;45.602;11.904;2023-04-06T14:01:34;19.50;68.90
59572;DHT22;59406;45.602;11.904;2023-04-06T14:04:00;19.50;70.10
59572;DHT22;59406;45.602;11.904;2023-04-06T14:08:56;19.50;69.50
59572;DHT22;59406;45.602;11.904;2023-04-06T14:11:22;19.50;69.40
59572;DHT22;59406;45.602;11.904;2023-04-06T14:13:48;19.50;69.00
59572;DHT22;59406;45.602;11.904;2023-04-06T14:16:14;19.50;70.80
59572;DHT22;59406;45.602;11.904;2023-04-06T14:18:40;19.50;69.00
59572;DHT22;59406;45.602;11.904;2023-04-06T14:21:07;19.60;69.00
59572;DHT22;59406;45.602;11.904;2023-04-06T14:23:33;19.50;70.00
59572;DHT22;59406;45.602;11.904;2023-04-06T14:26:06;19.40;69.50
59572;DHT22;59406;45.602;11.904;2023-04-06T14:28:33;19.50;68.60
59572;DHT22;59406;45.602;11.904;2023-04-06T14:31:00;19.50;68.80
59572;DHT22;59406;45.602;11.904;2023-04-06T14:33:26;19.50;68.80
59572;DHT22;59406;45.602;11.904;2023-04-06T14:35:53;19.60;68.80
59572;DHT22;59406;45.602;11.904;2023-04-06T14:38:19;19.50;68.50
59572;DHT22;59406;45.602;11.904;2023-04-06T14:40:45;19.60;68.60
59572;DHT22;59406;45.602;11.904;2023-04-06T14:45:44;19.50;68.80
59572;DHT22;59406;45.602;11.904;2023-04-06T14:48:10;19.60;68.70
59572;DHT22;59406;45.602;11.904;2023-04-06T14:53:10;19.50;70.10
59572;DHT22;59406;45.602;11.904;2023-04-06T14:55:39;19.60;71.40
59572;DHT22;59406;45.602;11.904;2023-04-06T14:58:07;19.60;71.20
59572;DHT22;59406;45.602;11.904;2023-04-06T15:00:33;19.60;70.20
59572;DHT22;59406;45.602;11.904;2023-04-06T15:02:58;19.60;69.80
59572;DHT22;59406;45.602;11.904;2023-04-06T15:05:24;19.60;69.00
59572;DHT22;59406;45.602;11.904;2023-04-06T15:07:51;19.60;68.90
59572;DHT22;59406;45.602;11.904;2023-04-06T15:10:17;19.60;68.70
59572;DHT22;59406;45.602;11.904;2023-04-06T15:12:42;19.50;68.50
59572;DHT22;59406;45.602;11.904;2023-04-06T15:15:09;19.60;68.50
59572;DHT22;59406;45.602;11.904;2023-04-06T15:17:35;19.50;68.50
59572;DHT22;59406;45.602;11.904;2023-04-06T15:25:16;19.60;68.60
59572;DHT22;59406;45.602;11.904;2023-04-06T15:27:42;19.60;68.80
59572;DHT22;59406;45.602;11.904;2023-04-06T15:30:09;19.50;70.20
59572;DHT22;59406;45.602;11.904;2023-04-06T15:32:35;19.60;68.80
59572;DHT22;59406;45.602;11.904;2023-04-06T15:35:11;19.60;68.60
59572;DHT22;59406;45.602;11.904;2023-04-06T15:37:38;19.50;68.20
59572;DHT22;59406;45.602;11.904;2023-04-06T15:40:04;19.60;68.10
59572;DHT22;59406;45.602;11.904;2023-04-06T15:42:30;19.60;68.50
59572;DHT22;59406;45.602;11.904;2023-04-06T15:44:56;19.50;68.10
59572;DHT22;59406;45.602;11.904;2023-04-06T15:47:22;19.50;68.20
59572;DHT22;59406;45.602;11.904;2023-04-06T15:49:48;19.50;68.50
59572;DHT22;59406;45.602;11.904;2023-04-06T15:52:14;19.50;67.80
59572;DHT22;59406;45.602;11.904;2023-04-06T15:54:40;19.60;67.70
59572;DHT22;59406;45.602;11.904;2023-04-06T15:57:06;19.50;68.20
59572;DHT22;59406;45.602;11.904;2023-04-06T15:59:32;19.60;68.00
59572;DHT22;59406;45.602;11.904;2023-04-06T16:01:58;19.50;67.80
59572;DHT22;59406;45.602;11.904;2023-04-06T16:04:25;19.60;67.50
59572;DHT22;59406;45.602;11.904;2023-04-06T16:06:51;19.50;67.50
59572;DHT22;59406;45.602;11.904;2023-04-06T16:09:17;19.50;67.30
59572;DHT22;59406;45.602;11.904;2023-04-06T16:11:43;19.50;67.80
59572;DHT22;59406;45.602;11.904;2023-04-06T16:14:09;19.50;67.90
59572;DHT22;59406;45.602;11.904;2023-04-06T16:16:34;19.40;67.90
59572;DHT22;59406;45.602;11.904;2023-04-06T16:19:01;19.50;67.60
59572;DHT22;59406;45.602;11.904;2023-04-06T16:21:27;19.40;67.90
59572;DHT22;59406;45.602;11.904;2023-04-06T16:23:53;19.40;67.90
59572;DHT22;59406;45.602;11.904;2023-04-06T16:26:20;19.50;67.90
59572;DHT22;59406;45.602;11.904;2023-04-06T16:28:46;19.40;67.60
59572;DHT22;59406;45.602;11.904;2023-04-06T16:31:19;19.40;67.90
59572;DHT22;59406;45.602;11.904;2023-04-06T16:36:27;19.40;68.20
59572;DHT22;59406;45.602;11.904;2023-04-06T16:42:04;19.40;68.30
59572;DHT22;59406;45.602;11.904;2023-04-06T16:44:30;19.40;68.60
59572;DHT22;59406;45.602;11.904;2023-04-06T16:46:56;19.50;68.40
59572;DHT22;59406;45.602;11.904;2023-04-06T16:51:58;19.50;69.00
59572;DHT22;59406;45.602;11.904;2023-04-06T16:54:27;19.50;69.20
59572;DHT22;59406;45.602;11.904;2023-04-06T16:56:53;19.50;69.10
59572;DHT22;59406;45.602;11.904;2023-04-06T16:59:19;19.50;69.40
59572;DHT22;59406;45.602;11.904;2023-04-06T17:01:45;19.50;68.60
59572;DHT22;59406;45.602;11.904;2023-04-06T17:04:11;19.50;68.50
59572;DHT22;59406;45.602;11.904;2023-04-06T17:06:36;19.50;68.50
59572;DHT22;59406;45.602;11.904;2023-04-06T17:09:02;19.50;68.50
59572;DHT22;59406;45.602;11.904;2023-04-06T17:11:28;19.50;68.70
59572;DHT22;59406;45.602;11.904;2023-04-06T17:13:54;19.50;68.60
59572;DHT22;59406;45.602;11.904;2023-04-06T17:16:20;19.40;69.00
59572;DHT22;59406;45.602;11.904;2023-04-06T17:18:46;19.40;68.60
59572;DHT22;59406;45.602;11.904;2023-04-06T17:21:12;19.50;68.80
59572;DHT22;59406;45.602;11.904;2023-04-06T17:23:41;19.50;68.80
59572;DHT22;59406;45.602;11.904;2023-04-06T17:26:08;19.40;69.70